Time;durP1;ratioP1;P1;durP2;ratioP2;P2;SDS_P1;SDS_P2;PMS_P1;PMS_P2;Temp;Humidity;BMP_temperature;BMP_pressure;BME280_temperature;BME280_humidity;BME280_pressure;Samples;Min_cycle;Max_cycle;Signal;HPM_P1;HPM_P2
2023/11/02 00:01:47;;;;;;;8.80;4.30;;;;;;;11.43;63.04;99988.61;105110;1261;65386;-54
2023/11/02 00:04:14;;;;;;;8.50;4.90;;;;;;;11.45;63.28;99990.47;105179;1263;60461;-54
2023/11/02 00:06:46;;;;;;;7.60;4.60;;;;;;;11.45;63.48;99990.14;105048;1257;62602;-54
2023/11/02 00:09:15;;;;;;;5.00;2.20;;;;;;;11.43;63.62;99988.42;105036;1264;60644;-52
2023/11/02 00:11:57;;;;;;;9.40;5.20;;;;;;;11.39;63.85;99987.67;105220;1259;60324;-54
2023/11/02 00:14:26;;;;;;;8.30;4.80;;;;;;;11.35;64.08;99986.61;106722;1257;63796;-54
2023/11/02 00:16:53;;;;;;;5.10;2.40;;;;;;;11.37;64.07;99981.59;104932;1258;61942;-54
2023/11/02 00:19:29;;;;;;;9.90;4.80;;;;;;;11.38;64.20;99980.98;104793;1259;62521;-52
2023/11/02 00:21:58;;;;;;;;;;;;;;;11.39;64.29;99981.78;105637;1257;60937;-56
2023/11/02 00:24:26;;;;;;;5.90;1.90;;;;;;;11.35;64.36;99981.52;105404;1258;60483;-53
2023/11/02 00:26:54;;;;;;;9.00;5.10;;;;;;;11.31;64.61;99990.15;105518;1257;64865;-54
2023/11/02 00:29:22;;;;;;;7.90;5.30;;;;;;;11.27;64.64;99990.13;104847;1262;60420;-54
2023/11/02 00:31:50;;;;;;;9.50;5.10;;;;;;;11.23;64.88;99991.56;105974;1258;63721;-53
2023/11/02 00:34:17;;;;;;;7.00;2.40;;;;;;;11.24;64.91;99995.84;105373;1260;60435;-54
2023/11/02 00:36:45;;;;;;;8.40;4.90;;;;;;;11.26;64.80;99988.36;105710;1256;60587;-53
2023/11/02 00:39:13;;;;;;;10.10;5.20;;;;;;;11.25;64.77;99988.22;108605;1256;64930;-53
2023/11/02 00:41:41;;;;;;;5.30;2.60;;;;;;;11.23;64.87;99989.80;105262;1261;60442;-53
2023/11/02 00:44:08;;;;;;;8.50;4.60;;;;;;;11.21;65.07;99992.50;106187;1257;64191;-53
2023/11/02 00:46:36;;;;;;;6.90;4.70;;;;;;;11.14;65.16;99994.63;106024;1256;60479;-54
2023/11/02 00:49:05;;;;;;;7.70;1.70;;;;;;;11.11;65.25;99994.23;105467;1256;60312;-54
2023/11/02 00:51:32;;;;;;;6.70;4.20;;;;;;;11.10;65.10;99997.42;104902;1261;65408;-54
2023/11/02 00:54:01;;;;;;;7.00;4.40;;;;;;;11.10;65.04;99998.81;104958;1256;61376;-54
2023/11/02 00:56:31;;;;;;;8.80;5.30;;;;;;;11.11;64.85;99999.62;105586;1263;62517;-53
2023/11/02 00:59:00;;;;;;;5.70;2.00;;;;;;;11.09;64.79;100001.58;105558;1257;61715;-54
2023/11/02 01:01:28;;;;;;;6.30;4.20;;;;;;;11.04;64.76;100000.42;105560;1256;61868;-55
2023/11/02 01:03:57;;;;;;;8.40;4.60;;;;;;;11.00;64.70;100001.03;105311;1256;63636;-53
2023/11/02 01:06:33;;;;;;;4.80;1.50;;;;;;;10.95;64.76;100000.35;105721;1256;61920;-55
2023/11/02 01:09:03;;;;;;;5.30;1.90;;;;;;;10.95;64.73;100000.18;105697;1257;63751;-55
2023/11/02 01:11:32;;;;;;;8.30;4.10;;;;;;;10.97;64.56;99999.43;105613;1256;61070;-54
2023/11/02 01:14:24;;;;;;;8.80;3.90;;;;;;;10.98;64.30;100000.45;105754;1257;61472;-53
2023/11/02 01:16:52;;;;;;;5.30;1.80;;;;;;;10.95;64.26;99998.02;103046;1260;3229824;-53
2023/11/02 01:31:01;;;;;;;6.30;3.90;;;;;;;11.02;63.91;99997.41;103183;1284;604144;-56
2023/11/02 01:33:38;;;;;;;8.50;4.10;;;;;;;11.39;62.26;99999.85;103074;1264;3270259;-54
2023/11/02 01:36:06;;;;;;;6.00;3.50;;;;;;;11.34;62.10;100004.95;106427;1269;59243;-52
2023/11/02 01:38:34;;;;;;;7.00;3.10;;;;;;;11.32;62.04;100005.52;106355;1264;62227;-54
2023/11/02 01:41:18;;;;;;;7.60;3.80;;;;;;;11.28;62.01;100005.74;105653;1254;61345;-54
2023/11/02 01:43:59;;;;;;;4.40;1.50;;;;;;;11.21;62.21;100008.38;105268;1254;63714;-52
2023/11/02 01:46:49;;;;;;;6.60;3.50;;;;;;;11.13;62.21;100011.20;106420;1252;59327;-51
2023/11/02 01:49:38;;;;;;;7.10;3.70;;;;;;;11.06;62.38;100015.36;105387;1260;59286;-58
2023/11/02 01:52:14;;;;;;;5.90;3.40;;;;;;;10.97;62.44;100014.77;106593;1254;63341;-58
2023/11/02 01:54:43;;;;;;;8.70;1.40;;;;;;;10.91;62.42;100016.45;105562;1254;61510;-55
2023/11/02 01:57:18;;;;;;;7.70;3.40;;;;;;;10.89;62.52;100023.50;105872;1257;63805;-56
2023/11/02 01:59:58;;;;;;;5.30;1.40;;;;;;;10.87;62.61;100024.60;106312;1254;60327;-55
2023/11/02 02:02:30;;;;;;;7.40;3.30;;;;;;;10.82;62.66;100023.39;106687;1259;59557;-55
2023/11/02 02:05:00;;;;;;;3.50;1.20;;;;;;;10.76;62.64;100021.29;106189;1254;64107;-56
2023/11/02 02:07:53;;;;;;;6.10;3.50;;;;;;;10.69;62.78;100018.60;105860;1254;61780;-55
2023/11/02 02:10:49;;;;;;;4.70;2.10;;;;;;;10.59;62.95;100025.41;105873;1253;64201;-57
2023/11/02 02:14:02;;;;;;;5.80;3.10;;;;;;;10.47;62.90;100029.73;106502;1253;59579;-57
2023/11/02 02:16:51;;;;;;;4.40;1.30;;;;;;;10.36;62.95;100030.86;106185;1254;59521;-57
2023/11/02 02:19:55;;;;;;;6.40;2.80;;;;;;;10.32;63.05;100032.92;105742;1254;64100;-56
2023/11/02 02:22:33;;;;;;;5.70;1.40;;;;;;;10.32;63.01;100033.66;106217;1256;61315;-57
2023/11/02 02:25:13;;;;;;;6.50;3.20;;;;;;;10.32;62.95;100035.04;105187;1254;63832;-59
2023/11/02 02:27:52;;;;;;;5.30;1.70;;;;;;;10.30;62.85;100038.74;105420;1254;59761;-51
2023/11/02 02:30:55;;;;;;;9.40;3.20;;;;;;;10.24;62.81;100040.77;106876;1254;60786;-57
2023/11/02 02:33:58;;;;;;;2.70;0.90;;;;;;;10.18;62.92;100042.98;106475;1257;64122;-56
2023/11/02 02:36:32;;;;;;;7.80;3.50;;;;;;;10.11;62.86;100038.51;105801;1253;61319;-55
2023/11/02 02:39:04;;;;;;;3.50;1.30;;;;;;;10.04;62.91;100040.54;105222;1254;63788;-56
2023/11/02 02:41:39;;;;;;;7.30;2.80;;;;;;;10.00;62.86;100038.35;105696;1257;59839;-56
2023/11/02 02:44:08;;;;;;;2.60;0.90;;;;;;;10.00;62.73;100038.90;105857;1253;59712;-56
2023/11/02 02:46:38;;;;;;;6.70;2.90;;;;;;;10.02;62.63;100036.16;105907;1259;64116;-57
2023/11/02 02:49:05;;;;;;;4.80;1.50;;;;;;;10.00;62.55;100039.08;105566;1253;61338;-57
2023/11/02 02:51:36;;;;;;;4.90;2.70;;;;;;;9.95;62.60;100042.15;105290;1258;62554;-57
2023/11/02 02:54:08;;;;;;;4.20;1.00;;;;;;;9.88;62.66;100044.07;105571;1259;62498;-58
2023/11/02 02:56:37;;;;;;;5.60;2.70;;;;;;;9.81;62.65;100047.77;106540;1254;59749;-56
2023/11/02 02:59:08;;;;;;;4.00;1.50;;;;;;;9.75;62.76;100052.31;105585;1254;64130;-55
2023/11/02 03:01:37;;;;;;;7.20;3.00;;;;;;;9.71;62.84;100051.96;108773;1253;61312;-54
2023/11/02 03:04:08;;;;;;;3.10;0.90;;;;;;;9.66;62.74;100053.05;105640;1256;63797;-57
2023/11/02 03:06:44;;;;;;;5.50;2.80;;;;;;;9.66;62.68;100057.60;106434;1254;59561;-56
2023/11/02 03:09:16;;;;;;;3.70;1.50;;;;;;;9.67;62.46;100064.73;106548;1259;59740;-56
2023/11/02 03:11:44;;;;;;;3.80;1.70;;;;;;;9.65;62.37;100072.38;105447;1255;62928;-55
2023/11/02 03:14:13;;;;;;;5.30;2.70;;;;;;;9.62;62.38;100076.35;105234;1260;60108;-55
2023/11/02 03:16:42;;;;;;;4.10;1.20;;;;;;;9.55;62.37;100073.57;105537;1257;73005;-56
2023/11/02 03:19:14;;;;;;;5.50;3.00;;;;;;;9.48;62.32;100077.64;105914;1258;59986;-57
2023/11/02 03:21:42;;;;;;;4.60;1.60;;;;;;;9.41;62.34;100077.36;105323;1257;60350;-56
2023/11/02 03:24:15;;;;;;;5.60;2.80;;;;;;;9.34;62.43;100077.69;106320;1254;64072;-58
2023/11/02 03:26:50;;;;;;;4.70;1.60;;;;;;;9.28;62.42;100080.27;105408;1254;61487;-56
2023/11/02 03:29:49;;;;;;;5.60;2.30;;;;;;;9.28;62.23;100078.89;105258;1254;63746;-56
2023/11/02 03:32:41;;;;;;;2.70;1.00;;;;;;;9.28;62.20;100079.08;105275;1254;59779;-56
2023/11/02 03:35:11;;;;;;;4.20;1.50;;;;;;;9.22;62.23;100080.90;106336;1254;60445;-57
2023/11/02 03:38:03;;;;;;;4.00;1.10;;;;;;;9.16;62.44;100082.42;106190;1257;62884;-56
2023/11/02 03:40:46;;;;;;;7.70;1.90;;;;;;;9.11;62.50;100086.83;106526;1254;60504;-57
2023/11/02 03:43:23;;;;;;;7.90;3.00;;;;;;;9.06;62.51;100087.62;105541;1254;63919;-56
2023/11/02 03:46:22;;;;;;;3.10;0.90;;;;;;;9.00;62.58;100085.77;105661;1259;59787;-57
2023/11/02 03:49:03;;;;;;;4.60;1.40;;;;;;;9.03;62.59;100087.00;105159;1259;59635;-56
2023/11/02 03:51:58;;;;;;;4.20;1.90;;;;;;;9.06;62.35;100089.86;106457;1254;64101;-56
2023/11/02 03:54:48;;;;;;;3.50;1.00;;;;;;;9.08;62.19;100093.23;105346;1257;60357;-55
2023/11/02 03:57:52;;;;;;;3.50;1.10;;;;;;;9.06;62.11;100096.36;105332;1254;63759;-55
2023/11/02 04:00:20;;;;;;;4.70;1.60;;;;;;;8.99;62.05;100101.29;105616;1254;60913;-55
2023/11/02 04:02:49;;;;;;;6.20;3.00;;;;;;;8.89;62.08;100103.06;106498;1254;59659;-56
2023/11/02 04:05:21;;;;;;;3.60;1.30;;;;;;;8.79;62.17;100097.02;106454;1258;64363;-56
2023/11/02 04:07:55;;;;;;;2.90;0.90;;;;;;;8.71;62.28;100097.80;106182;1259;60317;-56
2023/11/02 04:10:27;;;;;;;6.70;3.00;;;;;;;8.65;62.27;100097.27;105639;1259;63793;-54
2023/11/02 04:13:13;;;;;;;4.20;1.30;;;;;;;8.59;62.51;100103.46;107023;1259;59253;-55
2023/11/02 04:15:40;;;;;;;5.00;2.30;;;;;;;8.61;62.43;100105.60;105625;1254;59522;-57
2023/11/02 04:18:09;;;;;;;2.30;0.70;;;;;;;8.63;62.33;100100.32;105201;1254;62867;-57
2023/11/02 04:20:36;;;;;;;3.70;1.10;;;;;;;8.65;62.39;100099.52;106326;1254;60184;-54
2023/11/02 04:23:04;;;;;;;4.00;1.50;;;;;;;8.64;62.40;100099.97;105917;1258;63887;-56
2023/11/02 04:25:32;;;;;;;5.30;2.80;;;;;;;8.61;62.47;100096.13;105129;1254;59640;-53
2023/11/02 04:27:59;;;;;;;3.10;1.20;;;;;;;8.60;62.59;100097.98;105161;1259;60410;-57
2023/11/02 04:30:28;;;;;;;3.20;1.00;;;;;;;8.58;62.53;100097.07;105784;1254;64163;-55
2023/11/02 04:32:55;;;;;;;3.70;1.00;;;;;;;8.55;62.68;100099.07;105251;1254;61366;-56
2023/11/02 04:35:23;;;;;;;4.10;1.20;;;;;;;8.50;62.64;100102.25;105159;1254;62529;-55
2023/11/02 04:38:07;;;;;;;5.70;3.10;;;;;;;8.45;62.75;100101.73;105824;1254;59708;-55
2023/11/02 04:40:35;;;;;;;3.40;1.00;;;;;;;8.38;62.74;100100.29;105736;1253;59743;-56
2023/11/02 04:43:03;;;;;;;4.00;1.20;;;;;;;8.39;62.70;100101.95;105727;1257;64153;-56
2023/11/02 04:45:31;;;;;;;3.40;1.10;;;;;;;8.43;62.84;100100.86;105862;1254;60084;-56
2023/11/02 04:47:58;;;;;;;5.70;2.50;;;;;;;8.48;62.79;100105.55;105907;1257;63800;-57
2023/11/02 04:50:27;;;;;;;4.40;1.20;;;;;;;8.49;62.80;100109.61;105635;1255;59794;-54
2023/11/02 04:52:54;;;;;;;4.00;1.70;;;;;;;8.48;62.77;100114.61;105225;1254;60693;-53
2023/11/02 04:55:22;;;;;;;6.60;3.40;;;;;;;8.46;62.83;100117.36;104932;1257;64138;-53
2023/11/02 04:57:49;;;;;;;3.40;1.40;;;;;;;8.47;62.92;100118.20;105247;1252;61770;-53
2023/11/02 05:00:18;;;;;;;3.90;1.10;;;;;;;8.46;63.02;100116.88;105856;1256;63720;-53
2023/11/02 05:02:46;;;;;;;7.30;3.40;;;;;;;8.43;63.07;100119.88;106110;1254;59762;-56
2023/11/02 05:05:14;;;;;;;4.50;1.00;;;;;;;8.41;62.95;100119.84;105184;1253;60376;-54
2023/11/02 05:07:41;;;;;;;3.60;0.90;;;;;;;8.42;62.71;100122.53;105514;1254;62894;-54
2023/11/02 05:10:09;;;;;;;4.30;1.50;;;;;;;8.44;62.60;100125.40;105637;1259;60076;-54
2023/11/02 05:12:37;;;;;;;3.30;1.00;;;;;;;8.46;62.60;100136.10;105644;1257;63884;-52
2023/11/02 05:15:05;;;;;;;5.80;3.00;;;;;;;8.49;62.49;100141.09;105165;1259;59566;-54
2023/11/02 05:17:33;;;;;;;3.80;1.30;;;;;;;8.53;62.52;100147.08;106430;1259;59241;-57
2023/11/02 05:20:01;;;;;;;4.50;1.30;;;;;;;8.55;62.50;100147.30;106236;1254;62896;-54
2023/11/02 05:22:28;;;;;;;5.30;3.20;;;;;;;8.57;62.48;100146.80;106593;1254;61313;-54
2023/11/02 05:24:56;;;;;;;3.00;1.20;;;;;;;8.56;62.29;100153.50;105238;1254;63779;-54
2023/11/02 05:27:25;;;;;;;6.20;3.20;;;;;;;8.54;62.29;100159.83;105160;1258;59685;-54
2023/11/02 05:29:52;;;;;;;3.60;1.20;;;;;;;8.53;62.41;100163.15;105324;1254;59749;-54
2023/11/02 05:32:20;;;;;;;6.50;3.50;;;;;;;8.55;62.44;100167.42;105069;1255;64054;-54
2023/11/02 05:34:47;;;;;;;4.30;1.40;;;;;;;8.56;62.49;100168.88;106341;1258;61695;-53
2023/11/02 05:37:15;;;;;;;3.90;1.30;;;;;;;8.63;62.20;100169.04;105966;1254;66232;-52
2023/11/02 05:39:43;;;;;;;5.50;1.50;;;;;;;8.72;61.96;100172.03;106648;1257;59182;-53
2023/11/02 05:42:11;;;;;;;6.00;3.50;;;;;;;8.82;61.81;100174.00;105406;1257;59691;-53
2023/11/02 05:44:38;;;;;;;4.80;1.50;;;;;;;8.90;61.76;100179.61;109158;1254;64149;-59
2023/11/02 05:47:06;;;;;;;7.00;4.00;;;;;;;8.97;61.81;100179.98;107804;1259;61311;-55
2023/11/02 05:49:34;;;;;;;5.00;1.50;;;;;;;9.05;61.70;100178.70;105450;1253;64180;-54
2023/11/02 05:52:03;;;;;;;5.90;3.60;;;;;;;9.11;61.40;100182.05;105165;1260;60601;-54
2023/11/02 05:54:30;;;;;;;3.90;1.50;;;;;;;9.17;61.22;100185.48;105181;1254;61396;-55
2023/11/02 05:56:58;;;;;;;7.80;4.40;;;;;;;9.21;60.99;100188.27;106662;1258;64948;-54
2023/11/02 05:59:25;;;;;;;4.70;1.60;;;;;;;9.22;60.63;100189.23;106673;1254;60457;-53
2023/11/02 06:01:54;;;;;;;4.50;1.70;;;;;;;9.22;60.45;100191.55;107615;1256;63757;-54
2023/11/02 06:04:22;;;;;;;6.70;4.00;;;;;;;9.21;60.40;100189.52;105268;1254;60457;-55
2023/11/02 06:06:50;;;;;;;7.20;1.70;;;;;;;9.23;60.30;100192.19;105776;1259;60312;-55
2023/11/02 06:09:17;;;;;;;3.30;1.40;;;;;;;9.31;59.94;100190.88;105636;1255;65168;-56
2023/11/02 06:11:45;;;;;;;3.40;1.20;;;;;;;9.39;59.72;100193.52;107662;1254;62237;-56
2023/11/02 06:14:12;;;;;;;7.70;4.20;;;;;;;9.48;59.49;100193.16;106053;1254;63747;-53
2023/11/02 06:16:40;;;;;;;5.40;1.60;;;;;;;9.55;59.31;100198.25;108640;1252;60469;-54
2023/11/02 06:19:08;;;;;;;7.50;3.80;;;;;;;9.58;59.07;100200.65;105753;1254;60562;-54
2023/11/02 06:21:36;;;;;;;5.80;2.20;;;;;;;9.57;58.97;100197.21;105042;1254;63652;-55
2023/11/02 06:24:04;;;;;;;6.30;3.70;;;;;;;9.56;59.10;100198.20;109075;1258;62019;-55
2023/11/02 06:26:32;;;;;;;4.50;1.50;;;;;;;9.56;59.12;100198.52;108996;1254;63729;-54
2023/11/02 06:28:59;;;;;;;9.10;3.70;;;;;;;9.58;59.19;100199.25;109139;1253;58484;-54
2023/11/02 06:31:27;;;;;;;4.10;1.70;;;;;;;9.60;59.11;100200.15;109253;1254;58348;-54
2023/11/02 06:33:55;;;;;;;6.90;3.90;;;;;;;9.59;59.08;100200.58;109194;1254;63976;-54
2023/11/02 06:36:22;;;;;;;4.00;1.40;;;;;;;9.59;59.03;100203.70;109179;1253;60153;-54
2023/11/02 06:38:50;;;;;;;8.70;4.10;;;;;;;9.61;59.00;100202.17;105013;1254;63832;-54
2023/11/02 06:41:18;;;;;;;4.20;1.10;;;;;;;9.63;59.00;100203.92;104986;1260;60982;-56
2023/11/02 06:43:45;;;;;;;5.70;3.20;;;;;;;9.71;58.93;100205.94;105633;1252;60427;-54
2023/11/02 06:46:13;;;;;;;4.50;1.60;;;;;;;9.81;58.91;100206.52;105211;1255;65037;-55
2023/11/02 06:48:41;;;;;;;5.60;3.30;;;;;;;9.93;58.81;100205.95;105276;1254;61313;-51
2023/11/02 06:51:09;;;;;;;3.70;1.50;;;;;;;10.02;58.91;100196.98;105846;1255;63719;-52
2023/11/02 06:53:36;;;;;;;8.60;4.20;;;;;;;10.13;59.05;100197.83;106899;1254;60369;-51
2023/11/02 06:56:05;;;;;;;6.10;2.00;;;;;;;10.27;58.89;100199.02;105700;1259;60486;-56
2023/11/02 06:58:33;;;;;;;7.10;3.60;;;;;;;10.37;58.65;100200.48;105143;1259;64917;-56
2023/11/02 07:01:00;;;;;;;3.90;1.60;;;;;;;10.46;58.27;100203.29;104837;1257;60483;-56
2023/11/02 07:03:28;;;;;;;6.40;3.90;;;;;;;10.50;57.94;100206.09;104966;1259;63794;-48
2023/11/02 07:05:55;;;;;;;3.90;1.40;;;;;;;10.52;57.38;100206.29;106651;1254;60409;-51
2023/11/02 07:08:23;;;;;;;6.70;3.70;;;;;;;10.53;57.37;100208.98;105980;1254;60516;-56
2023/11/02 07:10:51;;;;;;;5.40;2.40;;;;;;;10.55;57.18;100206.38;105917;1253;63714;-57
2023/11/02 07:13:19;;;;;;;6.50;3.40;;;;;;;10.59;57.12;100202.05;106857;1254;61458;-56
2023/11/02 07:15:47;;;;;;;6.70;1.80;;;;;;;10.64;56.88;100206.70;105119;1254;63668;-52
2023/11/02 07:18:14;;;;;;;6.50;3.30;;;;;;;10.72;56.50;100205.86;105063;1260;60558;-52
2023/11/02 07:20:42;;;;;;;5.30;1.40;;;;;;;10.83;56.26;100209.02;105699;1253;60421;-55
2023/11/02 07:23:10;;;;;;;6.40;3.50;;;;;;;10.89;56.13;100212.30;105228;1254;64953;-56
2023/11/02 07:25:39;;;;;;;5.70;3.00;;;;;;;10.96;56.09;100209.27;105729;1259;60576;-55
2023/11/02 07:28:07;;;;;;;7.00;3.50;;;;;;;11.03;55.95;100212.25;105179;1260;63749;-56
2023/11/02 07:30:36;;;;;;;3.80;1.20;;;;;;;11.08;56.18;100217.54;106141;1254;60510;-58
2023/11/02 07:33:03;;;;;;;6.90;3.70;;;;;;;11.13;55.86;100216.05;105686;1257;60616;-56
2023/11/02 07:35:31;;;;;;;4.40;1.50;;;;;;;11.17;55.66;100213.13;105172;1259;64981;-53
2023/11/02 07:37:59;;;;;;;5.70;3.10;;;;;;;11.18;55.41;100208.13;108309;1254;61404;-54
2023/11/02 07:40:28;;;;;;;9.10;3.80;;;;;;;11.20;55.31;100205.19;105780;1255;62441;-52
2023/11/02 07:42:56;;;;;;;6.00;3.00;;;;;;;11.22;55.36;100205.86;105056;1254;60565;-55
2023/11/02 07:45:25;;;;;;;7.40;3.10;;;;;;;11.26;55.29;100203.39;104983;1254;59636;-55
2023/11/02 07:47:52;;;;;;;5.60;3.50;;;;;;;11.31;54.97;100204.88;109209;1254;64900;-54
2023/11/02 07:50:20;;;;;;;6.70;3.40;;;;;;;11.35;55.00;100204.75;109195;1254;60089;-58
2023/11/02 07:52:47;;;;;;;7.40;3.30;;;;;;;11.45;55.15;100207.57;109167;1252;64203;-57
2023/11/02 07:55:15;;;;;;;4.10;1.20;;;;;;;11.60;54.72;100213.16;108686;1255;58820;-50
2023/11/02 07:57:42;;;;;;;7.60;3.80;;;;;;;11.69;54.65;100216.25;105134;1263;60427;-47
2023/11/02 08:00:11;;;;;;;6.60;3.70;;;;;;;11.78;54.60;100220.38;106343;1258;65447;-48
2023/11/02 08:02:39;;;;;;;7.20;3.60;;;;;;;11.84;54.50;100217.00;106274;1254;61290;-47
2023/11/02 08:05:07;;;;;;;6.30;3.40;;;;;;;11.89;54.54;100214.48;108917;1254;63166;-49
2023/11/02 08:07:35;;;;;;;5.80;2.10;;;;;;;11.96;54.48;100217.04;106073;1255;60461;-52
2023/11/02 08:10:03;;;;;;;9.30;3.80;;;;;;;12.03;54.46;100221.21;106010;1253;60481;-52
2023/11/02 08:12:33;;;;;;;6.20;3.40;;;;;;;12.07;54.28;100223.98;106502;1254;64973;-52
2023/11/02 08:15:02;;;;;;;7.00;3.70;;;;;;;12.12;54.04;100219.38;106201;1261;60428;-53
2023/11/02 08:17:30;;;;;;;7.40;3.80;;;;;;;12.15;54.32;100221.17;105745;1254;64312;-54
2023/11/02 08:19:58;;;;;;;7.00;4.20;;;;;;;12.19;54.11;100215.73;105895;1255;60555;-54
2023/11/02 08:22:25;;;;;;;7.30;3.80;;;;;;;12.22;53.87;100221.80;105111;1257;61782;-53
2023/11/02 08:24:53;;;;;;;7.00;3.60;;;;;;;12.23;54.02;100220.27;105831;1254;65659;-54
2023/11/02 08:27:21;;;;;;;8.50;3.50;;;;;;;12.26;54.02;100219.70;105165;1257;61431;-51
2023/11/02 08:29:48;;;;;;;7.70;4.50;;;;;;;12.28;53.99;100218.80;105221;1260;64263;-54
2023/11/02 08:32:16;;;;;;;6.70;3.30;;;;;;;12.32;54.22;100218.58;105043;1259;60542;-51
2023/11/02 08:34:43;;;;;;;6.70;2.80;;;;;;;12.44;54.36;100215.95;105284;1254;60449;-54
2023/11/02 08:37:11;;;;;;;5.80;2.80;;;;;;;12.59;53.60;100222.16;105425;1254;65391;-55
2023/11/02 08:39:39;;;;;;;6.70;3.00;;;;;;;12.71;53.34;100221.80;107374;1254;61945;-55
2023/11/02 08:42:07;;;;;;;5.50;3.10;;;;;;;12.83;53.69;100226.17;105661;1258;62478;-59
2023/11/02 08:44:39;;;;;;;7.70;3.50;;;;;;;12.93;52.97;100226.64;105156;1260;60548;-56
2023/11/02 08:47:09;;;;;;;5.90;2.90;;;;;;;12.99;52.72;100226.76;105789;1254;60466;-53
2023/11/02 08:49:38;;;;;;;6.80;3.30;;;;;;;13.05;52.88;100224.95;106132;1253;65872;-53
2023/11/02 08:52:06;;;;;;;7.80;3.50;;;;;;;13.14;52.91;100228.05;109061;1254;61917;-54
2023/11/02 08:54:33;;;;;;;6.10;3.00;;;;;;;13.22;52.58;100222.38;109133;1254;64201;-54
2023/11/02 08:57:01;;;;;;;6.10;2.90;;;;;;;13.30;52.52;100220.54;109122;1254;58339;-53
2023/11/02 08:59:29;;;;;;;7.80;3.90;;;;;;;13.39;52.33;100213.09;109097;1254;58381;-54
2023/11/02 09:01:58;;;;;;;8.10;3.70;;;;;;;13.45;52.43;100210.51;109101;1257;66725;-51
2023/11/02 09:04:28;;;;;;;5.90;3.30;;;;;;;13.54;52.08;100210.91;109232;1254;61314;-55
2023/11/02 09:06:56;;;;;;;7.30;3.50;;;;;;;13.61;51.98;100208.66;109092;1259;64226;-54
2023/11/02 09:09:24;;;;;;;6.80;3.60;;;;;;;13.67;52.06;100205.80;105767;1259;60309;-52
2023/11/02 09:11:52;;;;;;;7.30;4.10;;;;;;;13.72;51.78;100202.80;105080;1257;60469;-49
2023/11/02 09:14:20;;;;;;;5.70;3.40;;;;;;;13.75;51.53;100202.02;105894;1260;64858;-49
2023/11/02 09:16:47;;;;;;;6.30;3.30;;;;;;;13.76;51.30;100196.48;105631;1254;61512;-46
2023/11/02 09:19:15;;;;;;;6.90;3.40;;;;;;;13.76;51.46;100196.11;106301;1254;62471;-52
2023/11/02 09:21:43;;;;;;;6.80;3.50;;;;;;;13.76;51.49;100194.52;105521;1257;61071;-50
2023/11/02 09:24:11;;;;;;;6.80;3.80;;;;;;;13.78;51.44;100191.92;105084;1255;60657;-49
2023/11/02 09:26:41;;;;;;;9.30;4.00;;;;;;;13.79;51.57;100188.77;105825;1260;63792;-51
2023/11/02 09:29:08;;;;;;;7.90;4.30;;;;;;;13.84;51.71;100184.10;107298;1259;60100;-50
2023/11/02 09:31:36;;;;;;;7.50;4.10;;;;;;;13.90;51.98;100183.27;105563;1260;64219;-49
2023/11/02 09:34:09;;;;;;;8.50;3.90;;;;;;;13.96;51.96;100179.90;105667;1257;61681;-48
2023/11/02 09:36:37;;;;;;;8.10;4.00;;;;;;;14.00;51.85;100173.58;107809;1252;59303;-49
2023/11/02 09:39:07;;;;;;;8.30;4.60;;;;;;;14.00;52.00;100172.66;105037;1260;76081;-56
2023/11/02 09:41:35;;;;;;;7.70;4.20;;;;;;;14.01;52.13;100170.05;106220;1255;60663;-56
2023/11/02 09:44:06;;;;;;;8.70;4.00;;;;;;;14.06;52.17;100171.16;106719;1257;74875;-54
2023/11/02 09:46:34;;;;;;;6.40;3.50;;;;;;;14.15;52.22;100166.73;106257;1259;60612;-55
2023/11/02 09:49:02;;;;;;;7.40;3.70;;;;;;;14.32;52.30;100163.19;109131;1257;58712;-50
2023/11/02 09:51:29;;;;;;;7.00;3.60;;;;;;;14.55;52.05;100160.04;109042;1254;63626;-54
2023/11/02 09:53:58;;;;;;;7.20;3.90;;;;;;;14.74;51.79;100160.75;109228;1255;62144;-53
2023/11/02 09:56:26;;;;;;;6.60;4.00;;;;;;;14.89;51.22;100161.35;109142;1259;62475;-53
2023/11/02 09:58:53;;;;;;;7.00;4.30;;;;;;;14.99;51.12;100157.71;108889;1254;58551;-54
2023/11/02 10:01:21;;;;;;;7.10;4.00;;;;;;;15.11;51.24;100158.96;109099;1254;60040;-54
2023/11/02 10:03:48;;;;;;;7.00;4.40;;;;;;;15.23;51.00;100153.78;108999;1254;63704;-54
2023/11/02 10:06:16;;;;;;;6.70;4.30;;;;;;;15.34;50.67;100152.30;109103;1254;63754;-54
2023/11/02 10:08:44;;;;;;;7.70;4.10;;;;;;;15.41;50.29;100150.90;109108;1258;72482;-55
2023/11/02 10:11:14;;;;;;;8.30;4.40;;;;;;;15.43;50.10;100153.48;109147;1254;62698;-54
2023/11/02 10:13:43;;;;;;;8.50;4.50;;;;;;;15.44;50.00;100150.55;109130;1254;58802;-54
2023/11/02 10:16:11;;;;;;;8.40;4.00;;;;;;;15.47;50.30;100146.22;108101;1259;65464;-58
2023/11/02 10:18:39;;;;;;;7.00;3.80;;;;;;;15.53;50.24;100145.61;107150;1257;61525;-54
2023/11/02 10:21:08;;;;;;;6.40;4.10;;;;;;;15.56;49.92;100148.84;105695;1260;64524;-52
2023/11/02 10:23:54;;;;;;;9.00;4.80;;;;;;;15.56;49.94;100143.66;105661;1259;60517;-55
2023/11/02 10:26:24;;;;;;;8.50;4.80;;;;;;;15.59;50.19;100143.71;105358;1253;60481;-53
2023/11/02 10:28:54;;;;;;;9.10;4.50;;;;;;;15.62;49.91;100144.61;105230;1257;64410;-54
2023/11/02 10:31:24;;;;;;;9.50;4.70;;;;;;;15.65;49.71;100142.77;106321;1258;71372;-52
2023/11/02 10:33:52;;;;;;;8.10;4.50;;;;;;;15.68;49.78;100143.13;105744;1255;62522;-53
2023/11/02 10:36:20;;;;;;;7.80;5.00;;;;;;;15.72;49.81;100149.21;105291;1257;60632;-55
2023/11/02 10:38:47;;;;;;;7.90;4.10;;;;;;;15.73;49.41;100150.04;106326;1258;60473;-55
2023/11/02 10:41:32;;;;;;;9.30;5.20;;;;;;;15.63;49.69;100145.56;105055;1254;76105;-55
2023/11/02 10:44:02;;;;;;;7.50;4.50;;;;;;;15.56;49.74;100147.55;105825;1259;69188;-55
2023/11/02 10:46:29;;;;;;;8.20;4.20;;;;;;;15.50;49.94;100146.04;106675;1257;66098;-55
2023/11/02 10:48:58;;;;;;;7.50;5.00;;;;;;;15.46;49.77;100149.89;104975;1257;60492;-55
2023/11/02 10:51:29;;;;;;;7.20;4.30;;;;;;;15.38;49.87;100147.52;109155;1253;58177;-56
2023/11/02 10:54:13;;;;;;;6.50;4.30;;;;;;;15.31;50.01;100145.54;109152;1254;63924;-53
2023/11/02 10:56:42;;;;;;;8.20;3.80;;;;;;;15.30;50.14;100145.53;109039;1254;60587;-55
2023/11/02 10:59:10;;;;;;;6.70;4.20;;;;;;;15.31;50.40;100140.06;109082;1252;62960;-54
2023/11/02 11:01:38;;;;;;;8.70;4.20;;;;;;;15.37;50.32;100137.37;109108;1253;58838;-55
2023/11/02 11:04:10;;;;;;;8.20;4.30;;;;;;;15.46;50.03;100133.23;109184;1254;58523;-54
2023/11/02 11:06:39;;;;;;;7.20;4.00;;;;;;;15.58;50.46;100130.80;108138;1257;74819;-54
2023/11/02 11:09:07;;;;;;;7.80;4.50;;;;;;;15.70;50.10;100127.89;105582;1254;62486;-54
2023/11/02 11:11:35;;;;;;;8.30;4.20;;;;;;;15.84;49.84;100124.13;105865;1260;62599;-55
2023/11/02 11:14:03;;;;;;;8.60;5.00;;;;;;;15.96;49.57;100117.72;105714;1254;60414;-53
2023/11/02 11:16:30;;;;;;;7.40;3.90;;;;;;;16.10;49.22;100115.89;106494;1254;60892;-54
2023/11/02 11:18:58;;;;;;;7.10;4.40;;;;;;;16.20;48.60;100115.33;105921;1260;66424;-53
2023/11/02 11:21:26;;;;;;;6.30;4.40;;;;;;;16.29;48.59;100117.54;106053;1257;70588;-54
2023/11/02 11:23:54;;;;;;;10.10;4.90;;;;;;;16.41;48.29;100115.16;106069;1253;64855;-55
2023/11/02 11:26:21;;;;;;;7.80;4.20;;;;;;;16.54;48.15;100114.98;105380;1260;61025;-57
2023/11/02 11:28:49;;;;;;;6.90;4.10;;;;;;;16.66;47.97;100116.00;105333;1254;60478;-54
2023/11/02 11:31:52;;;;;;;6.80;4.20;;;;;;;16.77;47.20;100113.16;105210;1261;65452;-54
2023/11/02 11:34:20;;;;;;;6.60;4.00;;;;;;;16.83;47.26;100114.67;105527;1259;61633;-55
2023/11/02 11:36:48;;;;;;;6.30;3.40;;;;;;;16.92;47.21;100114.55;106004;1253;64333;-53
2023/11/02 11:39:37;;;;;;;9.30;3.60;;;;;;;17.04;46.57;100111.52;109248;1254;58491;-54
2023/11/02 11:42:05;;;;;;;7.00;3.50;;;;;;;17.15;46.14;100110.65;106336;1254;60556;-52
2023/11/02 11:44:33;;;;;;;6.60;3.40;;;;;;;17.22;45.55;100110.30;105169;1253;75985;-53
2023/11/02 11:47:00;;;;;;;5.70;3.50;;;;;;;17.26;45.46;100110.05;106141;1254;61422;-54
2023/11/02 11:49:43;;;;;;;8.00;3.60;;;;;;;17.31;45.44;100108.42;108461;1254;62600;-54
2023/11/02 11:52:25;;;;;;;7.00;3.20;;;;;;;17.36;45.13;100108.15;106429;1254;62254;-52